Time;durP1;ratioP1;P1;durP2;ratioP2;P2;SDS_P1;SDS_P2;PMS_P1;PMS_P2;Temp;Humidity;BMP_temperature;BMP_pressure;BME280_temperature;BME280_humidity;BME280_pressure;Samples;Min_cycle;Max_cycle;Signal;HPM_P1;HPM_P2
2023/09/14 00:01:14;;;;;;;1.50;1.00;;;17.80;99.90;;;;;;4916690;29;20038;-70
2023/09/14 00:03:39;;;;;;;0.80;0.30;;;17.70;99.90;;;;;;4917231;29;20024;-70
2023/09/14 00:06:05;;;;;;;3.10;0.80;;;17.60;99.90;;;;;;4932124;29;20074;-70
2023/09/14 00:08:31;;;;;;;0.77;0.47;;;17.60;99.90;;;;;;4916350;29;20032;-71
2023/09/14 00:11:00;;;;;;;2.75;0.63;;;17.50;99.90;;;;;;4917448;29;20032;-71
2023/09/14 00:13:26;;;;;;;4.13;1.13;;;17.50;99.90;;;;;;4916116;29;20127;-70
2023/09/14 00:15:52;;;;;;;1.23;0.60;;;17.40;99.90;;;;;;4916375;29;20032;-70
2023/09/14 00:18:19;;;;;;;1.55;0.55;;;17.40;99.90;;;;;;4915974;29;20035;-70
2023/09/14 00:20:45;;;;;;;1.10;0.60;;;17.40;99.90;;;;;;4916275;29;20043;-69
2023/09/14 00:23:11;;;;;;;1.42;0.68;;;17.30;99.90;;;;;;4917135;29;20036;-70
2023/09/14 00:25:36;;;;;;;1.77;0.68;;;17.20;99.90;;;;;;4916001;29;20114;-69
2023/09/14 00:28:02;;;;;;;1.50;0.52;;;17.10;99.90;;;;;;4917197;29;20032;-70
2023/09/14 00:30:28;;;;;;;2.03;0.70;;;17.10;99.90;;;;;;4917088;29;20036;-69
2023/09/14 00:32:54;;;;;;;0.77;0.68;;;17.10;99.90;;;;;;4915718;29;20035;-70
2023/09/14 00:35:20;;;;;;;2.33;0.50;;;17.00;99.90;;;;;;4914719;29;20039;-70
2023/09/14 00:37:47;;;;;;;0.98;0.47;;;17.00;99.90;;;;;;4916049;29;20472;-70
2023/09/14 00:40:14;;;;;;;2.58;0.50;;;16.90;99.90;;;;;;4900449;29;20035;-70
2023/09/14 00:42:46;;;;;;;1.83;0.73;;;16.80;99.90;;;;;;4915627;29;20024;-70
2023/09/14 00:45:15;;;;;;;2.25;0.63;;;16.80;99.90;;;;;;4915806;29;20040;-70
2023/09/14 00:47:48;;;;;;;0.75;0.50;;;16.80;99.90;;;;;;4915714;29;20028;-70
2023/09/14 00:50:16;;;;;;;2.03;0.60;;;16.70;99.90;;;;;;4915704;29;20082;-69
2023/09/14 00:52:46;;;;;;;1.15;0.60;;;16.60;99.90;;;;;;4899973;29;20063;-70
2023/09/14 00:55:20;;;;;;;2.50;0.97;;;16.60;99.90;;;;;;4915875;29;20032;-69
2023/09/14 00:57:50;;;;;;;3.97;0.80;;;16.60;99.90;;;;;;4915363;29;20031;-70
2023/09/14 01:00:16;;;;;;;1.17;0.50;;;16.60;99.90;;;;;;4915385;29;20379;-70
2023/09/14 01:02:43;;;;;;;3.20;0.38;;;16.50;99.90;;;;;;4915125;29;20031;-70
2023/09/14 01:05:14;;;;;;;2.83;0.95;;;16.60;99.90;;;;;;4910954;29;20073;-70
2023/09/14 01:07:40;;;;;;;1.55;1.02;;;16.50;99.90;;;;;;4936814;29;20458;-70
2023/09/14 01:10:09;;;;;;;1.67;0.57;;;16.50;99.90;;;;;;4915863;29;20059;-70
2023/09/14 01:12:35;;;;;;;2.00;0.80;;;16.50;99.90;;;;;;4929711;29;20034;-71
2023/09/14 01:15:21;;;;;;;1.15;0.30;;;16.40;99.90;;;;;;4917562;29;20504;-71
2023/09/14 01:18:59;;;;;;;2.58;0.70;;;16.30;99.90;;;;;;4919336;29;20042;-71
2023/09/14 01:21:52;;;;;;;3.45;0.68;;;16.30;99.90;;;;;;4931997;29;20038;-71
2023/09/14 01:24:53;;;;;;;4.20;0.82;;;16.30;99.90;;;;;;4925844;29;20160;-70
2023/09/14 01:27:22;;;;;;;5.75;1.00;;;16.10;99.90;;;;;;4933767;29;20031;-68
2023/09/14 01:29:48;;;;;;;2.33;0.82;;;16.10;99.90;;;;;;4932553;29;20050;-69
2023/09/14 01:32:14;;;;;;;2.97;1.20;;;16.10;99.90;;;;;;4927639;29;20028;-68
2023/09/14 01:34:40;;;;;;;1.48;0.50;;;16.00;99.90;;;;;;4943527;29;20028;-69
2023/09/14 01:37:06;;;;;;;1.67;1.13;;;16.00;99.90;;;;;;4934234;29;20104;-69
2023/09/14 01:39:34;;;;;;;3.10;0.82;;;15.90;99.90;;;;;;4934146;29;20028;-69
2023/09/14 01:42:02;;;;;;;2.40;0.90;;;15.90;99.90;;;;;;4927472;29;20480;-69
2023/09/14 01:44:28;;;;;;;2.35;0.88;;;15.90;99.90;;;;;;4933706;29;20431;-69
2023/09/14 01:46:55;;;;;;;1.40;0.68;;;15.90;99.90;;;;;;4934829;29;20032;-69
2023/09/14 01:49:21;;;;;;;1.77;0.85;;;15.80;99.90;;;;;;4926315;29;20031;-69
2023/09/14 01:51:46;;;;;;;2.22;0.85;;;15.90;99.90;;;;;;4933878;29;20032;-69
2023/09/14 01:54:12;;;;;;;1.88;0.90;;;15.80;99.90;;;;;;4934874;29;20032;-69
2023/09/14 01:56:38;;;;;;;2.85;0.90;;;15.80;99.90;;;;;;4935009;29;20519;-69
2023/09/14 01:59:04;;;;;;;1.90;0.73;;;15.70;99.90;;;;;;4934995;29;20056;-69
2023/09/14 02:01:30;;;;;;;2.25;0.52;;;15.60;99.90;;;;;;4918265;29;20027;-69
2023/09/14 02:03:55;;;;;;;3.40;0.80;;;15.60;99.90;;;;;;4933452;29;20039;-69
2023/09/14 02:06:21;;;;;;;3.65;0.77;;;15.60;99.90;;;;;;4933768;29;20114;-69
2023/09/14 02:08:47;;;;;;;1.92;0.50;;;15.50;99.90;;;;;;4934907;29;20118;-69
2023/09/14 02:11:13;;;;;;;2.97;0.55;;;15.50;99.90;;;;;;4934058;29;20068;-69
2023/09/14 02:13:40;;;;;;;3.17;0.57;;;15.50;99.90;;;;;;4933528;29;20040;-69
2023/09/14 02:16:06;;;;;;;2.67;0.80;;;15.20;99.90;;;;;;4929498;29;20424;-69
2023/09/14 02:18:32;;;;;;;3.08;0.52;;;15.30;99.90;;;;;;4933841;29;20079;-69
2023/09/14 02:20:58;;;;;;;2.55;0.80;;;15.20;99.90;;;;;;4933555;29;20107;-69
2023/09/14 02:23:23;;;;;;;1.60;0.55;;;15.10;99.90;;;;;;4927474;29;20024;-69
2023/09/14 02:25:50;;;;;;;2.22;1.02;;;15.10;99.90;;;;;;4932842;29;20044;-69
2023/09/14 02:28:19;;;;;;;2.03;0.65;;;15.10;99.90;;;;;;4933614;29;20110;-69
2023/09/14 02:30:45;;;;;;;2.50;0.90;;;15.10;99.90;;;;;;4934770;29;20031;-69
2023/09/14 02:33:11;;;;;;;3.10;1.00;;;15.10;99.90;;;;;;4917434;29;20036;-69
2023/09/14 02:35:39;;;;;;;1.27;0.68;;;15.00;99.90;;;;;;4933361;29;20079;-69
2023/09/14 02:38:06;;;;;;;1.70;0.90;;;15.10;99.90;;;;;;4918041;29;20031;-70
2023/09/14 02:40:32;;;;;;;2.42;0.75;;;15.00;99.90;;;;;;4933582;29;20027;-69
2023/09/14 02:42:58;;;;;;;1.48;0.98;;;14.90;99.90;;;;;;4933145;29;20032;-70
2023/09/14 02:45:24;;;;;;;5.38;1.55;;;15.00;99.90;;;;;;4933626;29;20031;-69
2023/09/14 02:47:50;;;;;;;3.42;0.68;;;14.90;99.90;;;;;;4910211;29;20387;-70
2023/09/14 02:50:16;;;;;;;2.50;1.08;;;14.80;99.90;;;;;;4933329;29;20031;-70
2023/09/14 02:52:42;;;;;;;3.75;1.05;;;14.80;99.90;;;;;;4949017;28;20372;-70
2023/09/14 02:55:08;;;;;;;2.75;1.02;;;14.80;99.90;;;;;;4933490;29;20039;-70
2023/09/14 02:57:34;;;;;;;4.60;1.10;;;14.80;99.90;;;;;;4933726;29;20024;-70
2023/09/14 03:00:00;;;;;;;1.95;0.95;;;14.80;99.90;;;;;;4936816;29;20024;-70
2023/09/14 03:02:27;;;;;;;3.17;1.05;;;14.70;99.90;;;;;;4929701;29;20016;-70
2023/09/14 03:04:52;;;;;;;1.95;0.90;;;14.70;99.90;;;;;;4918082;29;20028;-70
2023/09/14 03:07:18;;;;;;;2.50;0.77;;;14.70;99.90;;;;;;4923333;29;20043;-70
2023/09/14 03:09:44;;;;;;;1.38;0.68;;;14.70;99.90;;;;;;4934807;29;20034;-70
2023/09/14 03:12:10;;;;;;;2.30;0.85;;;14.60;99.90;;;;;;4922675;29;20030;-70
2023/09/14 03:14:35;;;;;;;1.48;0.60;;;14.70;99.90;;;;;;4926454;29;20119;-70
2023/09/14 03:17:01;;;;;;;8.60;0.90;;;14.60;99.90;;;;;;4936969;29;20020;-70
2023/09/14 03:19:28;;;;;;;0.77;0.52;;;14.60;99.90;;;;;;4932470;29;20092;-70
2023/09/14 03:21:54;;;;;;;1.58;1.00;;;14.50;99.90;;;;;;4942365;28;20034;-70
2023/09/14 03:24:20;;;;;;;2.35;1.00;;;14.40;99.90;;;;;;4924105;29;20035;-70
2023/09/14 03:26:46;;;;;;;3.00;1.17;;;14.40;99.90;;;;;;4930148;29;20078;-70
2023/09/14 03:29:12;;;;;;;2.42;1.25;;;14.40;99.90;;;;;;4944862;29;20024;-70
2023/09/14 03:31:38;;;;;;;7.13;1.38;;;14.40;99.90;;;;;;4920352;29;20032;-70
2023/09/14 03:34:07;;;;;;;1.73;0.47;;;14.30;99.90;;;;;;4928618;29;20115;-70
2023/09/14 03:36:33;;;;;;;7.03;0.93;;;14.30;99.90;;;;;;4921101;29;20038;-70
2023/09/14 03:38:59;;;;;;;3.45;1.02;;;14.40;99.90;;;;;;4919180;29;20035;-70
2023/09/14 03:41:24;;;;;;;1.77;0.90;;;14.30;99.90;;;;;;4922259;29;20031;-69
2023/09/14 03:43:50;;;;;;;2.15;1.17;;;14.20;99.90;;;;;;4917520;29;20032;-69
2023/09/14 03:46:16;;;;;;;0.77;0.40;;;14.10;99.90;;;;;;4937093;29;20111;-69
2023/09/14 03:48:42;;;;;;;1.55;0.70;;;14.20;99.90;;;;;;4936811;29;20031;-69
2023/09/14 03:51:08;;;;;;;1.92;1.13;;;14.10;99.90;;;;;;4937045;29;20028;-69
2023/09/14 03:53:33;;;;;;;2.13;1.10;;;14.10;99.90;;;;;;4920373;29;20028;-69
2023/09/14 03:55:59;;;;;;;3.38;1.17;;;14.10;99.90;;;;;;4918920;29;20096;-69
2023/09/14 03:58:26;;;;;;;3.53;0.73;;;14.10;99.90;;;;;;4929544;29;20161;-69
2023/09/14 04:00:54;;;;;;;5.22;1.35;;;14.00;99.90;;;;;;4934998;29;20137;-69
2023/09/14 04:03:19;;;;;;;3.80;1.27;;;14.00;99.90;;;;;;4921932;29;20028;-69
2023/09/14 04:05:45;;;;;;;1.65;0.82;;;14.00;99.90;;;;;;4934072;29;20034;-69
2023/09/14 04:08:12;;;;;;;4.20;0.75;;;13.90;99.90;;;;;;4935464;29;20047;-69
2023/09/14 04:10:39;;;;;;;3.70;1.05;;;13.90;99.90;;;;;;4923843;29;20116;-70
2023/09/14 04:13:35;;;;;;;1.55;0.80;;;14.00;99.90;;;;;;4934962;29;20067;-69
2023/09/14 04:16:03;;;;;;;2.45;1.15;;;13.90;99.90;;;;;;4919530;29;20100;-70
2023/09/14 04:18:34;;;;;;;2.05;1.10;;;13.80;99.90;;;;;;4929903;29;20028;-70
2023/09/14 04:21:02;;;;;;;1.98;1.23;;;13.80;99.90;;;;;;4932463;29;20033;-69
2023/09/14 04:23:28;;;;;;;4.18;1.10;;;13.80;99.90;;;;;;4935581;29;20031;-69
2023/09/14 04:25:54;;;;;;;1.55;0.88;;;13.90;99.90;;;;;;4918974;29;20167;-69
2023/09/14 04:28:23;;;;;;;1.65;0.90;;;13.80;99.90;;;;;;4921543;29;20516;-69
2023/09/14 04:30:57;;;;;;;6.72;1.90;;;13.80;99.90;;;;;;4933676;29;20082;-69
2023/09/14 04:33:24;;;;;;;3.58;1.02;;;13.60;99.90;;;;;;4920728;29;20028;-69
2023/09/14 04:35:56;;;;;;;1.98;0.90;;;13.60;99.90;;;;;;4916515;29;20165;-70
2023/09/14 04:38:22;;;;;;;7.80;0.80;;;13.50;99.90;;;;;;4921364;29;20032;-70
2023/09/14 04:40:48;;;;;;;2.88;0.85;;;13.60;99.90;;;;;;4933393;29;20034;-70
2023/09/14 04:43:14;;;;;;;20.05;7.47;;;13.80;99.90;;;;;;4935632;29;20030;-69
2023/09/14 04:45:41;;;;;;;6.90;1.48;;;13.80;99.90;;;;;;4928002;29;20028;-70
2023/09/14 04:48:07;;;;;;;5.97;1.40;;;13.80;99.90;;;;;;4908220;29;20129;-69
2023/09/14 04:50:33;;;;;;;5.13;0.98;;;13.70;99.90;;;;;;4915153;29;20110;-69
2023/09/14 04:52:59;;;;;;;1.60;0.80;;;13.60;99.90;;;;;;4933499;29;20039;-69
2023/09/14 04:55:25;;;;;;;3.92;1.42;;;13.60;99.90;;;;;;4904998;29;20028;-69
2023/09/14 04:57:52;;;;;;;4.40;1.13;;;13.60;99.90;;;;;;4916527;29;20123;-69
2023/09/14 05:00:18;;;;;;;2.53;1.20;;;13.60;99.90;;;;;;4921704;29;20392;-69
2023/09/14 05:02:43;;;;;;;3.35;0.93;;;13.50;99.90;;;;;;4932663;29;20043;-69
2023/09/14 05:05:10;;;;;;;1.92;0.80;;;13.60;99.90;;;;;;4930359;29;20426;-69
2023/09/14 05:07:39;;;;;;;3.13;1.15;;;13.80;99.90;;;;;;4915363;29;20080;-70
2023/09/14 05:10:06;;;;;;;1.70;0.98;;;13.60;99.90;;;;;;4917810;29;20030;-69
2023/09/14 05:12:32;;;;;;;3.42;1.45;;;13.50;99.90;;;;;;4931073;29;20066;-69
2023/09/14 05:14:58;;;;;;;2.85;1.27;;;13.50;99.90;;;;;;4929184;29;20072;-69
2023/09/14 05:17:23;;;;;;;3.03;1.25;;;13.50;99.90;;;;;;4927551;29;20030;-70
2023/09/14 05:19:49;;;;;;;5.60;1.42;;;13.60;99.90;;;;;;4935105;29;20821;-69
2023/09/14 05:22:15;;;;;;;11.43;2.03;;;13.60;99.90;;;;;;4934766;29;20038;-69
2023/09/14 05:24:41;;;;;;;4.30;1.33;;;13.60;99.90;;;;;;4934728;29;20016;-69
2023/09/14 05:27:07;;;;;;;5.25;1.63;;;13.50;99.90;;;;;;4922909;29;20354;-69
2023/09/14 05:29:33;;;;;;;14.43;1.27;;;13.50;99.90;;;;;;4914891;29;20035;-69
2023/09/14 05:31:59;;;;;;;2.58;1.42;;;13.40;99.90;;;;;;4933877;29;20484;-69
2023/09/14 05:34:25;;;;;;;2.55;1.45;;;13.40;99.90;;;;;;4919918;29;20076;-69
2023/09/14 05:36:52;;;;;;;3.38;1.20;;;13.40;99.90;;;;;;4921531;29;20036;-69
2023/09/14 05:39:18;;;;;;;4.35;1.20;;;13.50;99.90;;;;;;4942719;28;20031;-69
2023/09/14 05:41:45;;;;;;;4.22;1.10;;;13.50;99.90;;;;;;4901911;29;20580;-69
2023/09/14 05:44:10;;;;;;;3.08;1.77;;;13.50;99.90;;;;;;4934072;29;20031;-69
2023/09/14 05:46:39;;;;;;;8.95;1.33;;;13.50;99.90;;;;;;4918561;29;20115;-70
2023/09/14 05:49:08;;;;;;;5.80;1.45;;;13.60;99.90;;;;;;4917662;29;20424;-70
2023/09/14 05:51:34;;;;;;;2.00;1.00;;;13.60;99.90;;;;;;4934741;29;20023;-70
2023/09/14 05:53:59;;;;;;;6.18;1.42;;;13.60;99.90;;;;;;4926471;29;20484;-70
2023/09/14 05:56:25;;;;;;;2.40;0.95;;;13.60;99.90;;;;;;4919892;29;20587;-70
2023/09/14 05:58:51;;;;;;;1.77;0.70;;;13.70;99.90;;;;;;4931345;29;20690;-70
2023/09/14 06:01:16;;;;;;;3.88;1.10;;;13.70;99.90;;;;;;4943716;28;20112;-70
2023/09/14 06:03:42;;;;;;;3.80;1.52;;;13.70;99.90;;;;;;4927909;29;20015;-71
2023/09/14 06:06:08;;;;;;;2.40;0.98;;;13.70;99.90;;;;;;4933550;29;20067;-70
2023/09/14 06:08:35;;;;;;;6.53;1.38;;;13.80;99.90;;;;;;4934767;29;20091;-70
2023/09/14 06:11:00;;;;;;;4.13;1.48;;;13.90;99.90;;;;;;4929377;29;20039;-70
2023/09/14 06:13:27;;;;;;;3.30;1.65;;;13.90;99.90;;;;;;4933367;29;20028;-70
2023/09/14 06:15:52;;;;;;;1.77;1.27;;;13.90;99.90;;;;;;4930637;29;20031;-71
2023/09/14 06:18:18;;;;;;;3.25;1.45;;;14.00;99.90;;;;;;4920629;29;20165;-70
2023/09/14 06:20:44;;;;;;;10.52;1.98;;;14.10;99.90;;;;;;4924959;29;20039;-70
2023/09/14 06:23:10;;;;;;;3.03;1.60;;;14.10;99.90;;;;;;4915591;29;20034;-70
2023/09/14 06:25:36;;;;;;;4.55;1.65;;;14.10;99.90;;;;;;4922858;29;20107;-69
2023/09/14 06:28:01;;;;;;;1.58;0.82;;;14.20;99.90;;;;;;4918769;29;20044;-57
2023/09/14 06:30:27;;;;;;;3.15;1.33;;;14.20;99.90;;;;;;4929563;29;20449;-56
2023/09/14 06:32:54;;;;;;;2.53;1.00;;;14.20;99.90;;;;;;4917058;29;20511;-57
2023/09/14 06:35:20;;;;;;;2.00;0.90;;;14.30;99.90;;;;;;4916241;29;20075;-57
2023/09/14 06:37:46;;;;;;;2.92;1.08;;;14.30;99.90;;;;;;4918554;29;20055;-57
2023/09/14 06:40:12;;;;;;;5.13;1.20;;;14.30;99.90;;;;;;4917781;29;20024;-56
2023/09/14 06:42:37;;;;;;;4.18;1.10;;;14.40;99.90;;;;;;4917730;29;20096;-55
2023/09/14 06:45:06;;;;;;;3.28;1.40;;;14.50;99.90;;;;;;4918392;29;20107;-57
2023/09/14 06:47:31;;;;;;;8.63;1.30;;;14.50;99.90;;;;;;4918936;29;20154;-57
2023/09/14 06:49:57;;;;;;;3.75;1.38;;;14.60;99.90;;;;;;4918600;29;20032;-57
2023/09/14 06:52:23;;;;;;;3.92;1.30;;;14.60;99.90;;;;;;4918764;29;20030;-57
2023/09/14 06:54:49;;;;;;;2.10;1.23;;;14.70;99.90;;;;;;4917985;29;20043;-55
2023/09/14 06:57:14;;;;;;;2.53;0.90;;;14.80;99.90;;;;;;4918695;29;20099;-56
2023/09/14 06:59:40;;;;;;;3.97;1.35;;;14.90;99.90;;;;;;4918666;29;20035;-56
2023/09/14 07:02:06;;;;;;;2.42;1.15;;;15.00;99.90;;;;;;4918392;29;20473;-57
2023/09/14 07:04:34;;;;;;;3.50;0.80;;;15.20;99.90;;;;;;4918232;29;20047;-54
2023/09/14 07:07:00;;;;;;;3.40;1.20;;;15.50;99.90;;;;;;4918467;29;20038;-55
2023/09/14 07:09:26;;;;;;;2.33;0.90;;;15.50;99.90;;;;;;4918453;29;20156;-56
2023/09/14 07:11:52;;;;;;;1.95;1.00;;;15.60;99.90;;;;;;4918218;29;20485;-55
2023/09/14 07:14:18;;;;;;;5.38;1.15;;;15.60;99.90;;;;;;4918186;29;20044;-57
2023/09/14 07:16:44;;;;;;;2.58;0.95;;;15.70;99.90;;;;;;4932792;29;20123;-57
2023/09/14 07:19:10;;;;;;;1.65;0.73;;;15.50;99.90;;;;;;4918456;29;20385;-54
2023/09/14 07:21:37;;;;;;;3.13;1.20;;;15.60;99.90;;;;;;4918146;29;20020;-57
2023/09/14 07:24:07;;;;;;;8.00;1.38;;;15.60;99.90;;;;;;4917682;29;20028;-57
2023/09/14 07:26:34;;;;;;;3.67;1.27;;;15.80;99.90;;;;;;4918209;29;20024;-57
2023/09/14 07:29:01;;;;;;;3.40;1.30;;;15.80;99.90;;;;;;4932529;29;20119;-53
2023/09/14 07:31:27;;;;;;;4.60;1.52;;;15.90;99.90;;;;;;4932280;29;20063;-56
2023/09/14 07:33:53;;;;;;;3.75;1.00;;;15.90;99.90;;;;;;4917522;29;20115;-55
2023/09/14 07:36:19;;;;;;;2.85;0.80;;;16.10;99.90;;;;;;4917877;29;20741;-57
2023/09/14 07:38:45;;;;;;;4.38;1.02;;;16.20;99.90;;;;;;4917755;29;20025;-57
2023/09/14 07:41:11;;;;;;;4.03;1.15;;;16.40;99.90;;;;;;4917958;29;20028;-53
2023/09/14 07:43:37;;;;;;;2.80;1.33;;;16.40;99.90;;;;;;4931491;29;20055;-57
2023/09/14 07:46:03;;;;;;;3.92;1.70;;;16.60;99.90;;;;;;4917666;29;20065;-54
2023/09/14 07:48:29;;;;;;;3.28;1.00;;;16.60;99.90;;;;;;4917777;29;20035;-56
2023/09/14 07:50:55;;;;;;;1.38;0.82;;;16.70;99.90;;;;;;4916296;29;20040;-56
2023/09/14 07:53:21;;;;;;;1.65;1.00;;;16.80;99.90;;;;;;4917374;29;20028;-57
2023/09/14 07:55:52;;;;;;;1.52;0.82;;;16.90;99.90;;;;;;4917403;29;20087;-54
2023/09/14 07:58:20;;;;;;;3.60;1.25;;;16.90;99.90;;;;;;4917497;29;20091;-56
2023/09/14 08:00:49;;;;;;;1.92;0.90;;;17.00;99.90;;;;;;4917161;29;20694;-56
2023/09/14 08:03:15;;;;;;;3.40;0.90;;;16.90;99.90;;;;;;4929172;29;20028;-57
2023/09/14 08:05:41;;;;;;;0.80;0.60;;;17.10;99.90;;;;;;4930911;29;20036;-57
2023/09/14 08:08:09;;;;;;;2.80;1.23;;;17.30;99.90;;;;;;4916913;29;20027;-57
2023/09/14 08:10:35;;;;;;;5.78;0.95;;;17.30;99.90;;;;;;4916839;29;20414;-56
2023/09/14 08:13:01;;;;;;;5.32;1.20;;;17.40;99.90;;;;;;4916300;29;20067;-57
2023/09/14 08:15:28;;;;;;;1.77;0.80;;;17.50;99.90;;;;;;4916996;29;20445;-57
2023/09/14 08:17:54;;;;;;;3.50;0.68;;;17.30;99.90;;;;;;4915649;29;20052;-58
2023/09/14 08:20:20;;;;;;;2.20;0.93;;;17.30;99.90;;;;;;4917042;29;20028;-52
2023/09/14 08:22:47;;;;;;;3.42;1.20;;;17.50;99.90;;;;;;4916455;29;20108;-57
2023/09/14 08:25:15;;;;;;;3.88;1.40;;;17.40;99.90;;;;;;4916873;29;20055;-58
2023/09/14 08:27:43;;;;;;;1.63;0.90;;;17.50;99.90;;;;;;4914860;29;20035;-56
2023/09/14 08:30:11;;;;;;;2.28;1.20;;;17.50;99.90;;;;;;4912335;29;20032;-58
2023/09/14 08:32:37;;;;;;;5.88;0.90;;;17.80;99.90;;;;;;4916290;29;20406;-58
2023/09/14 08:35:33;;;;;;;7.03;1.33;;;17.90;99.90;;;;;;4915269;29;20115;-56
2023/09/14 08:37:59;;;;;;;3.45;0.95;;;18.00;99.90;;;;;;4911396;29;20131;-69
2023/09/14 08:40:25;;;;;;;1.67;0.82;;;18.10;99.90;;;;;;4931039;29;20496;-69
2023/09/14 08:42:53;;;;;;;14.93;1.30;;;18.30;99.90;;;;;;4912356;29;20359;-69
2023/09/14 08:45:29;;;;;;;2.05;0.75;;;18.30;99.90;;;;;;4914845;29;20056;-69
2023/09/14 08:47:57;;;;;;;2.20;0.88;;;18.30;99.90;;;;;;4913912;29;20596;-70
2023/09/14 08:50:34;;;;;;;5.10;1.45;;;18.00;99.90;;;;;;4916603;29;20139;-70
2023/09/14 08:53:01;;;;;;;2.75;1.05;;;18.20;99.90;;;;;;4915260;29;20108;-70
2023/09/14 08:55:34;;;;;;;2.97;0.85;;;18.50;99.90;;;;;;4914010;29;20119;-70
2023/09/14 08:58:01;;;;;;;1.55;0.70;;;18.60;99.90;;;;;;4915541;29;20032;-70
2023/09/14 09:00:29;;;;;;;5.35;1.05;;;18.50;99.90;;;;;;4916343;29;20473;-70
2023/09/14 09:02:56;;;;;;;3.88;1.42;;;19.00;99.90;;;;;;4929534;29;20091;-70
2023/09/14 09:05:25;;;;;;;3.10;0.95;;;19.00;99.90;;;;;;4915760;29;20032;-70
2023/09/14 09:07:52;;;;;;;4.53;1.30;;;19.10;99.90;;;;;;4939053;29;20036;-70
2023/09/14 09:10:22;;;;;;;0.98;0.60;;;19.30;99.90;;;;;;4902929;29;20025;-70
2023/09/14 09:13:04;;;;;;;4.90;1.33;;;19.30;99.90;;;;;;4901934;29;20122;-70
2023/09/14 09:15:32;;;;;;;1.60;0.50;;;19.00;99.90;;;;;;4924341;29;20048;-70
2023/09/14 09:18:12;;;;;;;2.55;0.70;;;19.00;99.90;;;;;;4920080;29;20036;-70
2023/09/14 09:20:40;;;;;;;3.60;1.25;;;19.30;99.90;;;;;;4939309;28;20048;-70
2023/09/14 09:23:07;;;;;;;3.70;0.93;;;19.50;99.90;;;;;;4928705;29;20067;-70
2023/09/14 09:25:52;;;;;;;1.27;0.63;;;19.70;99.90;;;;;;4930256;29;20028;-69
2023/09/14 09:28:18;;;;;;;1.80;0.70;;;19.90;99.90;;;;;;4899557;29;20036;-70
2023/09/14 09:30:44;;;;;;;3.08;0.75;;;19.80;99.90;;;;;;4903376;29;20028;-69
2023/09/14 09:33:11;;;;;;;2.58;0.93;;;19.70;99.90;;;;;;4921898;29;20036;-70
2023/09/14 09:35:37;;;;;;;3.08;1.10;;;19.80;99.90;;;;;;4914328;29;20091;-70
2023/09/14 09:38:35;;;;;;;2.63;0.80;;;19.80;99.90;;;;;;4912296;29;20032;-69
2023/09/14 09:41:11;;;;;;;6.53;1.27;;;20.10;99.90;;;;;;4900374;29;20050;-70
2023/09/14 09:43:41;;;;;;;3.63;1.00;;;20.20;99.90;;;;;;4911060;29;20032;-70
2023/09/14 09:46:17;;;;;;;1.45;0.70;;;20.30;99.90;;;;;;4927970;29;20043;-69
2023/09/14 09:48:43;;;;;;;2.55;0.93;;;20.20;99.90;;;;;;4913919;29;20054;-69
2023/09/14 09:51:09;;;;;;;2.92;0.75;;;20.50;99.90;;;;;;4915876;29;20083;-70
2023/09/14 09:53:36;;;;;;;2.28;0.93;;;20.80;99.90;;;;;;4914980;29;20036;-70
2023/09/14 09:56:03;;;;;;;1.70;0.80;;;20.90;99.90;;;;;;4914219;29;20032;-70
2023/09/14 09:58:37;;;;;;;1.20;0.40;;;20.80;99.80;;;;;;4913514;29;20089;-70
2023/09/14 10:01:03;;;;;;;1.73;0.65;;;21.20;99.50;;;;;;4914009;29;20028;-70
2023/09/14 10:03:33;;;;;;;3.95;1.40;;;21.10;99.10;;;;;;4909700;29;20040;-71
2023/09/14 10:05:58;;;;;;;5.22;1.25;;;21.20;99.20;;;;;;4928219;29;20044;-70
2023/09/14 10:08:24;;;;;;;5.13;1.02;;;21.40;98.80;;;;;;4914148;29;20035;-70
2023/09/14 10:10:51;;;;;;;1.60;0.77;;;21.70;98.70;;;;;;4932909;29;20546;-70
2023/09/14 10:13:22;;;;;;;1.77;0.70;;;21.90;98.30;;;;;;4935606;28;20050;-70
2023/09/14 10:15:56;;;;;;;1.40;0.70;;;21.60;98.20;;;;;;4924839;29;20087;-70
2023/09/14 10:18:28;;;;;;;4.15;0.65;;;21.10;98.80;;;;;;4929125;29;20047;-70
2023/09/14 10:20:55;;;;;;;2.08;0.60;;;21.60;98.60;;;;;;4913511;29;20028;-70
2023/09/14 10:23:22;;;;;;;2.65;0.50;;;21.20;98.60;;;;;;4928185;29;20040;-71
2023/09/14 10:25:50;;;;;;;7.00;1.20;;;21.30;98.20;;;;;;4914267;29;20032;-70
2023/09/14 10:28:19;;;;;;;1.33;0.70;;;21.90;97.80;;;;;;4915397;29;20068;-69
2023/09/14 10:30:46;;;;;;;2.97;0.43;;;22.20;96.90;;;;;;4915458;29;20043;-71
2023/09/14 10:33:14;;;;;;;2.80;0.88;;;22.20;97.00;;;;;;4925656;29;20035;-71
2023/09/14 10:35:41;;;;;;;1.13;0.52;;;22.10;96.90;;;;;;4926043;29;20032;-70
2023/09/14 10:38:08;;;;;;;2.85;1.20;;;22.30;97.20;;;;;;4896024;29;20024;-70
2023/09/14 10:40:37;;;;;;;2.78;1.08;;;22.60;96.40;;;;;;4915318;29;20156;-68
2023/09/14 10:43:09;;;;;;;2.58;1.02;;;22.40;96.90;;;;;;4913286;29;20039;-69
2023/09/14 10:45:39;;;;;;;4.68;0.80;;;22.90;97.30;;;;;;4910746;29;20144;-70
2023/09/14 10:48:10;;;;;;;3.17;0.70;;;22.60;95.80;;;;;;4913558;29;20095;-68
2023/09/14 10:50:35;;;;;;;;;;;23.10;96.50;;;;;;4913285;29;20648;-67
2023/09/14 10:53:02;;;;;;;0.95;0.47;;;22.90;95.40;;;;;;4913893;29;19915;-67
2023/09/14 10:55:31;;;;;;;4.90;1.83;;;22.30;95.90;;;;;;4898155;29;20033;-69
2023/09/14 10:57:57;;;;;;;2.05;1.25;;;22.40;98.00;;;;;;4911102;29;20035;-68
2023/09/14 11:00:42;;;;;;;1.08;0.55;;;22.60;97.60;;;;;;4914915;29;20028;-67
2023/09/14 11:03:09;;;;;;;3.03;1.15;;;22.70;97.40;;;;;;4927407;29;20500;-70
2023/09/14 11:05:43;;;;;;;0.98;0.30;;;22.40;97.60;;;;;;4929305;29;20366;-69
2023/09/14 11:08:11;;;;;;;1.88;0.90;;;22.50;98.80;;;;;;4914232;29;20496;-69
2023/09/14 11:10:37;;;;;;;4.22;0.88;;;22.60;98.30;;;;;;4930443;29;20091;-71
2023/09/14 11:13:21;;;;;;;3.80;0.52;;;22.80;97.00;;;;;;4910686;29;20652;-72
2023/09/14 11:15:54;;;;;;;2.92;0.70;;;22.90;97.70;;;;;;4919144;29;20154;-70
2023/09/14 11:18:32;;;;;;;3.03;0.68;;;22.70;96.30;;;;;;4911027;29;20028;-71
2023/09/14 11:20:57;;;;;;;3.03;1.08;;;22.50;97.20;;;;;;4930455;29;20031;-71
2023/09/14 11:23:35;;;;;;;6.32;1.02;;;22.50;96.60;;;;;;4914665;29;20040;-71
2023/09/14 11:26:02;;;;;;;2.05;0.43;;;23.00;97.00;;;;;;4917540;29;20115;-71
2023/09/14 11:28:31;;;;;;;9.82;1.48;;;23.00;96.00;;;;;;4909562;29;20628;-71
2023/09/14 11:30:57;;;;;;;2.42;0.63;;;23.10;96.10;;;;;;4916732;29;20047;-71
2023/09/14 11:33:24;;;;;;;4.15;0.82;;;22.80;95.90;;;;;;4927318;29;20032;-71
2023/09/14 11:35:53;;;;;;;4.90;0.90;;;22.90;96.10;;;;;;4907640;29;20410;-72
2023/09/14 11:38:22;;;;;;;1.80;0.60;;;22.90;95.80;;;;;;4932768;29;20067;-71
2023/09/14 11:40:48;;;;;;;4.13;1.38;;;23.30;96.80;;;;;;4916451;29;20400;-71
2023/09/14 11:43:24;;;;;;;1.30;0.45;;;23.70;95.70;;;;;;4909672;29;20024;-71
2023/09/14 11:45:58;;;;;;;2.72;0.47;;;23.90;94.70;;;;;;4920616;29;20042;-69
2023/09/14 11:48:32;;;;;;;1.98;0.45;;;23.90;94.80;;;;;;4916734;29;20072;-71
2023/09/14 11:51:02;;;;;;;1.15;0.60;;;24.00;94.50;;;;;;4916617;29;20119;-71
2023/09/14 11:53:32;;;;;;;2.20;0.80;;;23.60;94.30;;;;;;4916156;29;20388;-71
2023/09/14 11:55:58;;;;;;;3.57;0.60;;;23.80;95.80;;;;;;4931110;29;20096;-71
2023/09/14 11:58:24;;;;;;;0.63;0.22;;;24.60;93.30;;;;;;4916273;29;20052;-71
2023/09/14 12:00:52;;;;;;;2.60;0.63;;;24.00;94.50;;;;;;4916421;29;20047;-71
2023/09/14 12:03:18;;;;;;;3.60;0.80;;;24.50;93.10;;;;;;4910536;29;20050;-71
2023/09/14 12:05:47;;;;;;;1.63;0.73;;;25.70;93.40;;;;;;4916626;29;20067;-71
2023/09/14 12:08:17;;;;;;;1.15;0.60;;;26.50;90.90;;;;;;4911760;29;20028;-72
2023/09/14 12:10:45;;;;;;;1.85;0.63;;;27.50;88.20;;;;;;4913955;29;20031;-71
2023/09/14 12:13:15;;;;;;;2.53;0.60;;;28.30;86.90;;;;;;4912197;29;20047;-71
2023/09/14 12:15:45;;;;;;;;;;;28.20;82.70;;;;;;4918295;29;20044;-70
2023/09/14 12:18:13;;;;;;;2.28;0.73;;;28.20;80.80;;;;;;4911061;29;19915;-70
2023/09/14 12:20:41;;;;;;;4.00;0.60;;;29.50;81.90;;;;;;4914849;29;20084;-70
2023/09/14 12:23:09;;;;;;;2.42;0.30;;;30.40;76.70;;;;;;4895674;29;20400;-70
2023/09/14 12:25:38;;;;;;;3.22;0.60;;;30.10;73.00;;;;;;4916240;29;20024;-70
2023/09/14 12:28:07;;;;;;;3.87;0.90;;;30.50;72.90;;;;;;4911014;29;20128;-70
2023/09/14 12:30:34;;;;;;;2.15;0.63;;;30.50;71.10;;;;;;4910895;29;20036;-71
2023/09/14 12:33:03;;;;;;;0.40;0.30;;;30.20;69.10;;;;;;4914434;29;20052;-71
2023/09/14 12:35:30;;;;;;;3.10;0.80;;;29.40;70.60;;;;;;4931748;29;20028;-70
2023/09/14 12:38:04;;;;;;;2.15;0.40;;;29.20;71.10;;;;;;4928152;28;20399;-71
2023/09/14 12:40:35;;;;;;;2.95;0.77;;;28.40;69.50;;;;;;4915831;29;20083;-71
2023/09/14 12:43:03;;;;;;;0.90;0.50;;;28.80;72.90;;;;;;4902899;29;20430;-71
2023/09/14 12:45:32;;;;;;;2.53;0.60;;;29.40;70.80;;;;;;4916318;29;20408;-71
2023/09/14 12:48:06;;;;;;;0.73;0.40;;;29.60;70.20;;;;;;4909115;29;20531;-72
2023/09/14 12:50:34;;;;;;;1.17;0.55;;;29.70;68.50;;;;;;4905239;29;20032;-72
2023/09/14 12:53:07;;;;;;;1.40;0.40;;;27.50;70.50;;;;;;4904150;29;20048;-71